createdAt,value
2022-10-05T00:01:29.768Z,83.90
2022-10-05T00:04:14.712Z,83.90
2022-10-05T00:06:43.183Z,84.00
2022-10-05T00:09:20.160Z,83.90
2022-10-05T00:11:47.454Z,84.00
2022-10-05T00:14:21.549Z,84.10
2022-10-05T00:16:48.512Z,84.30
2022-10-05T00:19:27.220Z,84.50
2022-10-05T00:22:17.464Z,84.60
2022-10-05T00:24:45.130Z,84.70
2022-10-05T00:27:16.865Z,85.10
2022-10-05T00:29:43.674Z,84.50
2022-10-05T00:32:10.315Z,84.50
2022-10-05T00:34:37.180Z,84.70
2022-10-05T00:37:04.637Z,84.80
2022-10-05T00:39:31.165Z,84.80
2022-10-05T00:42:25.482Z,84.70
2022-10-05T00:45:01.852Z,84.80
2022-10-05T00:47:41.937Z,84.60
2022-10-05T00:50:13.597Z,84.70
2022-10-05T00:52:54.015Z,84.70
2022-10-05T00:55:41.480Z,84.80
2022-10-05T00:58:20.118Z,84.80
2022-10-05T01:01:09.591Z,84.80
2022-10-05T01:04:02.995Z,84.90
2022-10-05T01:06:56.361Z,85.00
2022-10-05T01:09:42.641Z,85.30
2022-10-05T01:12:35.051Z,85.30
2022-10-05T01:15:09.657Z,85.70
2022-10-05T01:17:56.447Z,85.70
2022-10-05T01:20:47.183Z,85.80
2022-10-05T01:23:34.326Z,85.80
2022-10-05T01:26:18.831Z,85.90
2022-10-05T01:28:58.240Z,86.00
2022-10-05T01:31:34.690Z,86.10
2022-10-05T01:34:22.544Z,86.20
2022-10-05T01:37:07.132Z,86.20
2022-10-05T01:40:00.731Z,86.10
2022-10-05T01:43:00.586Z,86.20
2022-10-05T01:45:38.707Z,86.70
2022-10-05T01:48:34.166Z,86.90
2022-10-05T01:51:00.247Z,87.10
2022-10-05T01:53:51.205Z,87.30
2022-10-05T01:56:46.318Z,87.50
2022-10-05T01:59:35.704Z,87.80
2022-10-05T02:02:14.913Z,87.80
2022-10-05T02:05:03.111Z,88.00
2022-10-05T02:07:36.158Z,88.20
2022-10-05T02:10:11.833Z,88.10
2022-10-05T02:12:38.526Z,88.00
2022-10-05T02:15:13.146Z,87.90
2022-10-05T02:17:47.768Z,87.90
2022-10-05T02:20:24.616Z,87.90
2022-10-05T02:22:58.621Z,87.70
2022-10-05T02:25:30.301Z,87.60
2022-10-05T02:28:03.951Z,87.50
2022-10-05T02:30:33.619Z,87.50
2022-10-05T02:33:08.244Z,87.50
2022-10-05T02:35:34.280Z,87.40
2022-10-05T02:38:15.683Z,87.40
2022-10-05T02:40:47.803Z,87.70
2022-10-05T02:43:44.121Z,87.70
2022-10-05T02:46:28.446Z,87.90
2022-10-05T02:49:28.944Z,88.50
2022-10-05T02:52:19.386Z,88.10
2022-10-05T02:55:01.062Z,88.80
2022-10-05T02:57:59.498Z,88.30
2022-10-05T03:00:28.174Z,88.30
2022-10-05T03:02:57.037Z,88.30
2022-10-05T03:05:53.697Z,88.40
2022-10-05T03:08:48.694Z,88.50
2022-10-05T03:11:27.064Z,88.70
2022-10-05T03:14:11.552Z,88.60
2022-10-05T03:16:45.043Z,88.50
2022-10-05T03:19:47.903Z,88.50
2022-10-05T03:22:37.788Z,88.40
2022-10-05T03:25:18.968Z,88.10
2022-10-05T03:28:12.798Z,88.00
2022-10-05T03:31:04.176Z,88.00
2022-10-05T03:33:46.124Z,88.10
2022-10-05T03:36:32.669Z,88.00
2022-10-05T03:39:20.683Z,88.10
2022-10-05T03:42:07.054Z,88.10
2022-10-05T03:44:54.524Z,88.10
2022-10-05T03:47:47.445Z,88.00
2022-10-05T03:50:42.575Z,87.90
2022-10-05T03:53:29.240Z,87.90
2022-10-05T03:56:25.001Z,87.90
2022-10-05T03:59:05.130Z,87.90
2022-10-05T04:01:54.447Z,88.10
2022-10-05T04:04:41.992Z,88.10
2022-10-05T04:07:34.771Z,88.10
2022-10-05T04:10:06.336Z,88.00
2022-10-05T04:12:38.329Z,87.80
2022-10-05T04:15:30.194Z,87.80
2022-10-05T04:18:03.257Z,87.80
2022-10-05T04:20:40.295Z,87.70
2022-10-05T04:23:17.852Z,87.80
2022-10-05T04:25:52.065Z,87.80
2022-10-05T04:28:18.251Z,87.70
2022-10-05T04:30:47.722Z,87.70
2022-10-05T04:33:15.426Z,87.50
2022-10-05T04:35:59.431Z,87.40
2022-10-05T04:38:48.075Z,87.50
2022-10-05T04:41:39.593Z,87.20
2022-10-05T04:44:26.605Z,87.00
2022-10-05T04:47:14.165Z,86.80
2022-10-05T04:49:52.245Z,86.50
2022-10-05T04:52:50.822Z,86.50
2022-10-05T04:55:32.686Z,86.40
2022-10-05T04:58:37.808Z,86.10
2022-10-05T05:01:50.912Z,86.10
2022-10-05T05:04:39.359Z,86.00
2022-10-05T05:07:39.664Z,85.70
2022-10-05T05:10:30.405Z,85.40
2022-10-05T05:12:59.057Z,85.10
2022-10-05T05:15:56.242Z,84.90
2022-10-05T05:18:40.314Z,84.70
2022-10-05T05:22:00.530Z,84.50
2022-10-05T05:24:49.464Z,84.40
2022-10-05T05:27:27.476Z,84.10
2022-10-05T05:30:05.951Z,84.00
2022-10-05T05:32:39.186Z,83.60
2022-10-05T05:35:33.216Z,83.20
2022-10-05T05:38:43.850Z,83.00
2022-10-05T05:41:20.165Z,82.40
2022-10-05T05:44:07.593Z,82.20
2022-10-05T05:47:03.098Z,82.20
2022-10-05T05:49:40.719Z,82.00
2022-10-05T05:52:25.164Z,81.80
2022-10-05T05:55:00.035Z,82.20
2022-10-05T05:57:42.444Z,81.40
2022-10-05T06:00:14.668Z,81.60
2022-10-05T06:02:47.597Z,81.60
2022-10-05T06:05:24.404Z,81.40
2022-10-05T06:07:53.149Z,81.20
2022-10-05T06:10:41.368Z,81.00
2022-10-05T06:13:39.350Z,81.10
2022-10-05T06:16:18.162Z,81.00
2022-10-05T06:18:51.572Z,80.80
2022-10-05T06:21:37.881Z,80.70
2022-10-05T06:24:20.557Z,80.60
2022-10-05T06:27:12.429Z,80.60
2022-10-05T06:30:05.004Z,80.50
2022-10-05T06:33:04.117Z,80.60
2022-10-05T06:35:59.226Z,80.70
2022-10-05T06:38:43.504Z,80.70
2022-10-05T06:41:22.569Z,80.60
2022-10-05T06:44:00.031Z,80.70
2022-10-05T06:46:38.657Z,80.60
2022-10-05T06:49:26.377Z,80.50
2022-10-05T06:52:49.144Z,80.60
2022-10-05T06:55:23.173Z,80.60
2022-10-05T06:58:06.354Z,80.50
2022-10-05T07:00:38.857Z,80.60
2022-10-05T07:03:21.632Z,80.50
2022-10-05T07:05:52.272Z,80.50
2022-10-05T07:08:41.518Z,80.70
2022-10-05T07:11:24.679Z,80.80
2022-10-05T07:14:00.137Z,80.90
2022-10-05T07:16:50.696Z,81.10
2022-10-05T07:19:35.786Z,81.10
2022-10-05T07:22:01.988Z,81.20
2022-10-05T07:24:28.551Z,81.10
2022-10-05T07:27:17.063Z,81.30
2022-10-05T07:29:58.273Z,81.40
2022-10-05T07:32:55.457Z,81.40
2022-10-05T07:35:53.238Z,81.20
2022-10-05T07:38:37.500Z,81.20
2022-10-05T07:41:31.759Z,81.30
2022-10-05T07:44:12.906Z,81.20
2022-10-05T07:46:53.471Z,81.20
2022-10-05T07:49:56.508Z,81.20
2022-10-05T07:52:38.219Z,81.20
2022-10-05T07:55:26.020Z,81.00
2022-10-05T07:58:20.729Z,81.00
2022-10-05T08:01:24.278Z,81.00
2022-10-05T08:04:19.963Z,80.80
2022-10-05T08:06:57.872Z,80.80
2022-10-05T08:09:35.568Z,80.80
2022-10-05T08:12:11.854Z,80.80
2022-10-05T08:14:51.723Z,80.80
2022-10-05T08:17:42.596Z,80.80
2022-10-05T08:20:40.150Z,80.80
2022-10-05T08:23:24.724Z,81.00
2022-10-05T08:26:12.210Z,80.70
2022-10-05T08:29:02.004Z,80.20
2022-10-05T08:31:42.288Z,79.70
2022-10-05T08:34:42.147Z,79.50
2022-10-05T08:37:26.826Z,79.50
2022-10-05T08:40:00.234Z,79.30
2022-10-05T08:43:14.603Z,79.20
2022-10-05T08:46:17.608Z,78.90
2022-10-05T08:49:03.732Z,78.90
2022-10-05T08:51:52.549Z,78.80
2022-10-05T08:54:41.764Z,79.10
2022-10-05T08:57:37.419Z,78.90
2022-10-05T09:00:20.744Z,78.90
2022-10-05T09:02:52.602Z,78.50
2022-10-05T09:05:27.571Z,78.30
2022-10-05T09:08:37.487Z,78.30
2022-10-05T09:11:32.077Z,78.20
2022-10-05T09:14:32.218Z,77.90
2022-10-05T09:17:17.035Z,77.90
2022-10-05T09:20:10.624Z,77.30
2022-10-05T09:22:52.160Z,76.70
2022-10-05T09:25:31.874Z,76.60
2022-10-05T09:28:20.164Z,76.30
2022-10-05T09:30:46.596Z,75.90
2022-10-05T09:33:23.333Z,75.70
2022-10-05T09:36:04.632Z,75.30
2022-10-05T09:38:54.341Z,74.90
2022-10-05T09:41:49.532Z,74.00
2022-10-05T09:44:31.062Z,73.40
2022-10-05T09:47:22.098Z,72.50
2022-10-05T09:50:26.063Z,71.70
2022-10-05T09:53:05.295Z,71.40
2022-10-05T09:55:31.459Z,70.30
2022-10-05T09:58:27.713Z,70.40
2022-10-05T10:01:33.786Z,69.50
2022-10-05T10:04:21.560Z,69.30
2022-10-05T10:07:20.505Z,68.50
2022-10-05T10:10:11.487Z,68.50
2022-10-05T10:12:43.525Z,67.90
2022-10-05T10:15:40.997Z,68.20
2022-10-05T10:18:34.414Z,67.80
2022-10-05T10:21:09.402Z,67.90
2022-10-05T10:24:02.915Z,68.80
2022-10-05T10:26:55.836Z,68.80
2022-10-05T10:29:24.857Z,68.40
2022-10-05T10:31:54.395Z,68.50
2022-10-05T10:34:43.221Z,68.90
2022-10-05T10:37:18.224Z,69.00
2022-10-05T10:40:19.511Z,69.20
2022-10-05T10:43:06.625Z,70.00
2022-10-05T10:45:53.357Z,70.20
2022-10-05T10:48:29.878Z,70.40
2022-10-05T10:51:33.329Z,70.80
2022-10-05T10:54:21.731Z,71.70
2022-10-05T10:57:12.901Z,71.90
2022-10-05T11:00:03.525Z,72.30
2022-10-05T11:02:37.478Z,72.30
2022-10-05T11:05:27.615Z,72.40
2022-10-05T11:08:08.696Z,72.70
2022-10-05T11:11:02.345Z,73.10
2022-10-05T11:13:31.578Z,73.20
2022-10-05T11:16:19.836Z,73.20
2022-10-05T11:19:19.646Z,74.10
2022-10-05T11:21:46.282Z,73.80
2022-10-05T11:24:38.537Z,73.50
2022-10-05T11:27:33.408Z,73.60
2022-10-05T11:30:19.065Z,73.70
2022-10-05T11:33:22.737Z,73.30
2022-10-05T11:36:11.857Z,73.50
2022-10-05T11:39:03.421Z,73.30
2022-10-05T11:41:33.417Z,73.00
2022-10-05T11:44:07.378Z,72.90
2022-10-05T11:46:43.849Z,72.80
2022-10-05T11:49:31.549Z,73.00
2022-10-05T11:52:09.464Z,73.00
2022-10-05T11:55:15.354Z,72.80
2022-10-05T11:57:55.254Z,73.00
2022-10-05T12:00:32.627Z,72.90
2022-10-05T12:03:14.085Z,72.60
2022-10-05T12:06:08.622Z,72.10
2022-10-05T12:08:52.315Z,71.50
2022-10-05T12:11:48.907Z,71.20
2022-10-05T12:14:40.325Z,70.80
2022-10-05T12:17:06.533Z,70.70
2022-10-05T12:19:49.644Z,70.50
2022-10-05T12:22:21.200Z,70.10
2022-10-05T12:25:00.783Z,70.50
2022-10-05T12:27:37.679Z,70.30
2022-10-05T12:30:26.762Z,70.10
2022-10-05T12:33:12.728Z,69.60
2022-10-05T12:35:49.764Z,70.10
2022-10-05T12:38:27.793Z,70.00
2022-10-05T12:41:03.873Z,69.50
2022-10-05T12:43:56.370Z,69.50
2022-10-05T12:46:50.529Z,69.70
2022-10-05T12:49:54.090Z,69.40
2022-10-05T12:52:26.400Z,69.00
2022-10-05T12:55:03.051Z,68.40
2022-10-05T12:57:50.768Z,68.30
2022-10-05T13:00:22.950Z,68.30
2022-10-05T13:03:15.102Z,69.10
2022-10-05T13:06:07.334Z,68.20
2022-10-05T13:08:55.794Z,68.30
2022-10-05T13:11:36.952Z,68.60
2022-10-05T13:14:16.491Z,68.70
2022-10-05T13:17:00.162Z,68.30
2022-10-05T13:19:43.933Z,68.40
2022-10-05T13:22:35.198Z,68.90
2022-10-05T13:25:13.387Z,69.20
2022-10-05T13:27:47.216Z,69.40
2022-10-05T13:30:20.019Z,69.00
2022-10-05T13:33:17.386Z,68.70
2022-10-05T13:36:03.355Z,68.70
2022-10-05T13:38:48.214Z,68.50
2022-10-05T13:41:38.824Z,68.40
2022-10-05T13:44:34.479Z,68.60
2022-10-05T13:47:00.538Z,68.40
2022-10-05T13:49:35.742Z,68.30
2022-10-05T13:52:33.185Z,67.70
2022-10-05T13:55:21.474Z,67.50
2022-10-05T13:58:26.290Z,67.50
2022-10-05T14:00:59.617Z,67.60
2022-10-05T14:03:31.738Z,67.20
2022-10-05T14:06:00.892Z,66.80
2022-10-05T14:08:34.322Z,66.70
2022-10-05T14:11:21.666Z,66.60
2022-10-05T14:13:49.467Z,65.50
2022-10-05T14:16:22.498Z,66.10
2022-10-05T14:18:54.473Z,66.50
2022-10-05T14:21:28.337Z,65.20
2022-10-05T14:23:56.510Z,64.60
2022-10-05T14:26:25.939Z,64.80
2022-10-05T14:29:38.674Z,64.60
2022-10-05T14:32:15.262Z,64.60
2022-10-05T14:34:55.864Z,64.50
2022-10-05T14:37:25.421Z,64.80
2022-10-05T14:39:56.944Z,65.30
2022-10-05T14:42:44.928Z,66.30
2022-10-05T14:45:17.086Z,65.50
2022-10-05T14:48:08.005Z,65.30
2022-10-05T14:50:58.418Z,65.00
2022-10-05T14:53:37.272Z,65.30
2022-10-05T14:56:29.588Z,65.30
2022-10-05T14:59:06.933Z,65.10
2022-10-05T15:01:36.137Z,65.30
2022-10-05T15:04:15.854Z,65.40
2022-10-05T15:06:53.341Z,65.60
2022-10-05T15:09:29.991Z,65.70
2022-10-05T15:11:59.341Z,65.80
2022-10-05T15:14:39.469Z,65.90
2022-10-05T15:17:53.784Z,66.20
2022-10-05T15:20:51.692Z,66.30
2022-10-05T15:23:47.596Z,66.30
2022-10-05T15:26:14.014Z,66.60
2022-10-05T15:28:47.582Z,66.80
2022-10-05T15:31:42.703Z,67.00
2022-10-05T15:34:12.732Z,67.20
2022-10-05T15:36:43.330Z,67.50
2022-10-05T15:39:34.619Z,67.50
2022-10-05T15:42:14.692Z,67.70
2022-10-05T15:44:48.630Z,67.80
2022-10-05T15:47:39.914Z,68.10
2022-10-05T15:50:21.704Z,68.10
2022-10-05T15:53:09.978Z,68.20
2022-10-05T15:56:00.989Z,68.10
2022-10-05T15:58:53.152Z,67.90
2022-10-05T16:01:40.587Z,68.20
2022-10-05T16:04:48.116Z,68.70
2022-10-05T16:07:45.489Z,68.90
2022-10-05T16:10:22.174Z,68.80
2022-10-05T16:13:00.274Z,68.40
2022-10-05T16:15:37.229Z,68.50
2022-10-05T16:18:39.467Z,68.70
2022-10-05T16:21:26.089Z,68.70
2022-10-05T16:24:15.170Z,69.00
2022-10-05T16:26:47.265Z,69.50
2022-10-05T16:29:42.812Z,69.60
2022-10-05T16:32:15.548Z,69.70
2022-10-05T16:35:10.065Z,69.70
2022-10-05T16:37:49.274Z,69.70
2022-10-05T16:40:45.119Z,69.70
2022-10-05T16:43:36.895Z,69.90
2022-10-05T16:46:27.905Z,70.00
2022-10-05T16:49:03.631Z,70.00
2022-10-05T16:51:41.366Z,70.20
2022-10-05T16:54:52.689Z,70.30
2022-10-05T16:57:44.960Z,70.40
2022-10-05T17:00:15.679Z,70.60
2022-10-05T17:03:14.199Z,70.70
2022-10-05T17:05:46.484Z,71.20
2022-10-05T17:08:35.994Z,71.50
2022-10-05T17:11:20.388Z,71.80
2022-10-05T17:14:19.852Z,71.80
2022-10-05T17:17:25.824Z,72.10
2022-10-05T17:20:42.573Z,72.40
2022-10-05T17:23:31.345Z,72.70
2022-10-05T17:26:45.212Z,72.70
2022-10-05T17:29:16.496Z,72.90
2022-10-05T17:32:07.789Z,73.00
2022-10-05T17:34:56.526Z,73.20
2022-10-05T17:37:58.477Z,73.10
2022-10-05T17:40:40.472Z,73.50
2022-10-05T17:43:25.030Z,73.50
2022-10-05T17:46:00.543Z,73.70
2022-10-05T17:48:43.678Z,73.80
2022-10-05T17:51:38.993Z,74.00
2022-10-05T17:54:44.336Z,74.10
2022-10-05T17:57:10.991Z,74.40
2022-10-05T17:59:46.632Z,74.30
2022-10-05T18:02:19.149Z,74.50
2022-10-05T18:05:06.672Z,74.60
2022-10-05T18:07:38.529Z,74.60
2022-10-05T18:10:16.729Z,74.70
2022-10-05T18:13:17.879Z,75.00
2022-10-05T18:15:48.403Z,75.30
2022-10-05T18:18:35.224Z,75.10
2022-10-05T18:21:13.337Z,75.30
2022-10-05T18:24:24.471Z,76.00
2022-10-05T18:27:19.985Z,75.60
2022-10-05T18:30:18.849Z,75.60
2022-10-05T18:33:11.849Z,75.70
2022-10-05T18:36:03.028Z,75.80
2022-10-05T18:38:53.778Z,75.90
2022-10-05T18:41:33.698Z,76.00
2022-10-05T18:44:16.957Z,76.00
2022-10-05T18:47:12.761Z,76.10
2022-10-05T18:50:08.360Z,76.50
2022-10-05T18:53:00.608Z,76.50
2022-10-05T18:55:37.361Z,76.50
2022-10-05T18:58:15.165Z,76.60
2022-10-05T19:00:59.481Z,76.80
2022-10-05T19:04:03.933Z,77.30
2022-10-05T19:06:43.928Z,77.70
2022-10-05T19:09:22.604Z,78.10
2022-10-05T19:12:00.982Z,78.70
2022-10-05T19:14:51.204Z,80.00
2022-10-05T19:17:36.153Z,81.00
2022-10-05T19:20:26.759Z,81.50
2022-10-05T19:23:25.865Z,82.50
2022-10-05T19:26:06.870Z,83.20
2022-10-05T19:28:51.684Z,83.50
2022-10-05T19:31:24.372Z,84.40
2022-10-05T19:33:56.655Z,85.00
2022-10-05T19:36:44.807Z,85.70
2022-10-05T19:39:39.776Z,86.60
2022-10-05T19:42:37.636Z,87.80
2022-10-05T19:45:21.022Z,88.30
2022-10-05T19:48:08.468Z,88.70
2022-10-05T19:50:37.799Z,89.30
2022-10-05T19:53:08.774Z,89.80
2022-10-05T19:55:45.166Z,90.20
2022-10-05T19:58:26.475Z,90.30
2022-10-05T20:01:02.301Z,90.60
2022-10-05T20:03:30.409Z,90.80
2022-10-05T20:05:58.930Z,91.00
2022-10-05T20:08:31.260Z,91.40
2022-10-05T20:11:26.517Z,91.40
2022-10-05T20:13:52.604Z,91.50
2022-10-05T20:19:49.910Z,91.60
2022-10-05T20:22:22.147Z,91.70
2022-10-05T20:24:50.233Z,91.70
2022-10-05T20:27:36.092Z,91.80
2022-10-05T20:30:03.767Z,92.00
2022-10-05T20:32:30.923Z,92.10
2022-10-05T20:34:57.132Z,92.20
2022-10-05T20:37:25.329Z,92.30
2022-10-05T20:39:51.918Z,92.40
2022-10-05T20:42:19.334Z,92.50
2022-10-05T20:44:45.770Z,92.50
2022-10-05T20:47:13.074Z,92.50
2022-10-05T20:49:43.847Z,92.60
2022-10-05T20:52:11.255Z,92.60
2022-10-05T20:54:38.542Z,92.70
2022-10-05T20:57:05.818Z,92.80
2022-10-05T20:59:32.950Z,92.80
2022-10-05T21:02:00.861Z,93.20
2022-10-05T21:04:40.020Z,92.90
2022-10-05T21:07:07.470Z,92.50
2022-10-05T21:09:33.546Z,92.10
2022-10-05T21:11:59.640Z,91.90
2022-10-05T21:14:29.795Z,91.80
2022-10-05T21:16:55.989Z,91.80
2022-10-05T21:19:22.011Z,91.70
2022-10-05T21:21:48.165Z,91.70
2022-10-05T21:24:14.891Z,91.80
2022-10-05T21:26:42.224Z,91.80
2022-10-05T21:29:12.483Z,91.80
2022-10-05T21:31:39.697Z,91.80
2022-10-05T21:34:06.098Z,91.90
2022-10-05T21:36:32.599Z,91.90
2022-10-05T21:38:58.915Z,91.90
2022-10-05T21:41:25.082Z,91.90
2022-10-05T21:43:51.264Z,91.90
2022-10-05T21:46:20.508Z,92.00
2022-10-05T21:48:48.284Z,92.20
2022-10-05T21:51:18.196Z,92.20
2022-10-05T21:54:10.021Z,92.10
2022-10-05T21:56:40.330Z,92.30
2022-10-05T21:59:09.934Z,92.40
2022-10-05T22:01:36.171Z,92.60
2022-10-05T22:04:04.051Z,92.80
2022-10-05T22:06:30.881Z,92.90
2022-10-05T22:08:57.331Z,92.90
2022-10-05T22:11:23.620Z,93.00
2022-10-05T22:13:51.854Z,93.10
2022-10-05T22:16:20.546Z,93.30
2022-10-05T22:18:47.881Z,93.40
2022-10-05T22:21:14.606Z,93.50
2022-10-05T22:23:42.553Z,93.60
2022-10-05T22:26:11.817Z,93.70
2022-10-05T22:28:39.341Z,93.90
2022-10-05T22:31:07.776Z,94.00
2022-10-05T22:33:36.316Z,94.00
2022-10-05T22:36:03.481Z,94.10
2022-10-05T22:38:30.012Z,94.20
2022-10-05T22:40:56.942Z,94.30
2022-10-05T22:43:24.251Z,94.40
2022-10-05T22:45:50.367Z,94.50
2022-10-05T22:48:16.537Z,94.60
2022-10-05T22:50:46.300Z,94.70
2022-10-05T22:53:13.280Z,94.90
2022-10-05T22:55:39.922Z,94.90
2022-10-05T22:58:05.988Z,94.90
2022-10-05T23:00:56.273Z,94.90
2022-10-05T23:03:18.769Z,94.90
2022-10-05T23:05:44.806Z,95.00
2022-10-05T23:08:10.867Z,95.10
2022-10-05T23:10:36.903Z,95.10
2022-10-05T23:13:04.214Z,95.20
2022-10-05T23:15:30.273Z,95.30
2022-10-05T23:17:56.892Z,95.40
2022-10-05T23:20:24.077Z,95.40
2022-10-05T23:22:50.242Z,95.50
2022-10-05T23:25:17.441Z,95.50
2022-10-05T23:27:43.688Z,95.40
2022-10-05T23:30:11.162Z,95.30
2022-10-05T23:32:38.704Z,95.20
2022-10-05T23:35:06.254Z,95.10
2022-10-05T23:37:35.564Z,95.10
2022-10-05T23:40:01.874Z,95.10
2022-10-05T23:42:27.967Z,95.00
2022-10-05T23:44:53.991Z,95.10
2022-10-05T23:47:20.129Z,94.70
2022-10-05T23:49:46.188Z,94.80
2022-10-05T23:52:12.328Z,94.40
2022-10-05T23:54:38.316Z,94.30
2022-10-05T23:57:04.386Z,94.20
2022-10-05T23:59:30.444Z,94.20
